createdAt,value
2022-08-16T00:00:22.085Z,23.89
2022-08-16T00:02:48.274Z,23.89
2022-08-16T00:05:18.692Z,23.88
2022-08-16T00:07:49.049Z,23.89
2022-08-16T00:10:20.261Z,23.87
2022-08-16T00:12:50.319Z,23.85
2022-08-16T00:15:20.825Z,23.85
2022-08-16T00:17:57.236Z,23.85
2022-08-16T00:20:21.849Z,23.84
2022-08-16T00:22:51.847Z,23.80
2022-08-16T00:26:36.370Z,23.77
2022-08-16T00:27:52.103Z,23.72
2022-08-16T00:30:28.982Z,23.64
2022-08-16T00:32:52.658Z,23.55
2022-08-16T00:35:23.364Z,23.46
2022-08-16T00:37:57.122Z,23.39
2022-08-16T00:40:34.347Z,23.36
2022-08-16T00:42:54.867Z,23.35
2022-08-16T00:45:25.161Z,23.35
2022-08-16T00:47:54.973Z,23.33
2022-08-16T00:50:36.305Z,23.32
2022-08-16T00:52:56.769Z,23.31
2022-08-16T00:55:27.459Z,23.28
2022-08-16T00:57:59.927Z,23.25
2022-08-16T01:00:28.874Z,23.21
2022-08-16T01:02:59.527Z,23.16
2022-08-16T01:05:29.767Z,23.15
2022-08-16T01:08:00.651Z,23.15
2022-08-16T01:10:32.168Z,23.13
2022-08-16T01:13:01.852Z,23.13
2022-08-16T01:15:32.447Z,23.13
2022-08-16T01:18:02.958Z,23.12
2022-08-16T01:20:34.055Z,23.13
2022-08-16T01:23:04.037Z,23.14
2022-08-16T01:25:34.590Z,23.14
2022-08-16T01:28:04.824Z,23.16
2022-08-16T01:30:34.810Z,23.15
2022-08-16T01:33:14.556Z,23.13
2022-08-16T01:35:36.327Z,23.11
2022-08-16T01:38:05.985Z,23.09
2022-08-16T01:40:36.358Z,23.08
2022-08-16T01:43:06.779Z,23.06
2022-08-16T01:45:40.822Z,23.04
2022-08-16T01:48:19.191Z,23.02
2022-08-16T01:50:43.306Z,23.00
2022-08-16T01:53:10.158Z,22.98
2022-08-16T01:55:40.756Z,22.97
2022-08-16T01:58:10.819Z,22.93
2022-08-16T02:00:40.812Z,22.90
2022-08-16T02:03:12.643Z,22.88
2022-08-16T02:05:46.544Z,22.87
2022-08-16T02:08:33.331Z,22.89
2022-08-16T02:10:41.994Z,22.91
2022-08-16T02:13:12.539Z,22.93
2022-08-16T02:15:43.935Z,22.95
2022-08-16T02:18:13.512Z,22.96
2022-08-16T02:20:45.437Z,22.95
2022-08-16T02:23:14.135Z,22.94
2022-08-16T02:25:51.685Z,22.93
2022-08-16T02:28:17.484Z,22.91
2022-08-16T02:30:50.521Z,22.86
2022-08-16T02:33:15.697Z,22.79
2022-08-16T02:35:53.949Z,22.77
2022-08-16T02:38:16.021Z,22.78
2022-08-16T02:40:46.510Z,22.79
2022-08-16T02:43:17.411Z,22.74
2022-08-16T02:45:47.763Z,22.73
2022-08-16T02:48:28.502Z,22.71
2022-08-16T02:50:55.494Z,22.69
2022-08-16T02:53:23.626Z,22.70
2022-08-16T02:55:50.403Z,22.72
2022-08-16T02:58:20.304Z,22.72
2022-08-16T03:00:50.957Z,22.70
2022-08-16T03:03:21.387Z,22.69
2022-08-16T03:05:52.671Z,22.68
2022-08-16T03:08:50.487Z,22.63
2022-08-16T03:10:52.219Z,22.56
2022-08-16T03:13:22.376Z,22.48
2022-08-16T03:15:52.768Z,22.41
2022-08-16T03:18:34.536Z,22.37
2022-08-16T03:20:55.554Z,22.39
2022-08-16T03:23:23.577Z,22.38
2022-08-16T03:25:53.838Z,22.36
2022-08-16T03:28:24.717Z,22.32
2022-08-16T03:30:55.289Z,22.29
2022-08-16T03:33:25.175Z,22.30
2022-08-16T03:35:57.323Z,22.29
2022-08-16T03:38:34.310Z,22.28
2022-08-16T03:40:56.812Z,22.26
2022-08-16T03:43:51.148Z,22.25
2022-08-16T03:45:57.584Z,22.23
2022-08-16T03:48:36.828Z,22.22
2022-08-16T03:50:59.485Z,22.20
2022-08-16T03:53:37.763Z,22.19
2022-08-16T03:56:00.103Z,22.17
2022-08-16T03:58:30.445Z,22.14
2022-08-16T04:01:01.205Z,22.13
2022-08-16T04:03:31.698Z,22.14
2022-08-16T04:06:02.176Z,22.15
2022-08-16T04:08:32.430Z,22.12
2022-08-16T04:11:03.293Z,22.11
2022-08-16T04:13:59.415Z,22.14
2022-08-16T04:16:06.534Z,22.16
2022-08-16T04:18:35.386Z,22.18
2022-08-16T04:21:06.232Z,22.17
2022-08-16T04:23:36.457Z,22.14
2022-08-16T04:26:07.202Z,22.11
2022-08-16T04:28:53.710Z,22.07
2022-08-16T04:31:10.642Z,22.04
2022-08-16T04:33:38.575Z,22.02
2022-08-16T04:36:09.163Z,22.00
2022-08-16T04:38:39.724Z,21.99
2022-08-16T04:41:10.598Z,21.97
2022-08-16T04:43:43.730Z,21.96
2022-08-16T04:46:26.499Z,21.92
2022-08-16T04:48:41.893Z,21.89
2022-08-16T04:51:12.824Z,21.87
2022-08-16T04:53:42.759Z,21.87
2022-08-16T04:56:13.008Z,21.86
2022-08-16T04:58:45.521Z,21.85
2022-08-16T05:01:13.759Z,21.83
2022-08-16T05:04:00.508Z,21.82
2022-08-16T05:06:14.540Z,21.81
2022-08-16T05:08:47.326Z,21.80
2022-08-16T05:11:15.056Z,21.78
2022-08-16T05:13:45.602Z,21.75
2022-08-16T05:16:20.226Z,21.73
2022-08-16T05:18:46.161Z,21.72
2022-08-16T05:21:16.281Z,21.71
2022-08-16T05:23:51.777Z,21.70
2022-08-16T05:26:19.918Z,21.67
2022-08-16T05:28:46.995Z,21.64
2022-08-16T05:31:17.011Z,21.64
2022-08-16T05:33:53.513Z,21.65
2022-08-16T05:36:20.940Z,21.64
2022-08-16T05:38:48.615Z,21.65
2022-08-16T05:41:18.899Z,21.67
2022-08-16T05:43:49.597Z,21.70
2022-08-16T05:46:29.900Z,21.76
2022-08-16T05:48:55.071Z,21.79
2022-08-16T05:51:38.350Z,21.83
2022-08-16T05:53:51.426Z,21.86
2022-08-16T05:56:21.569Z,21.90
2022-08-16T05:58:51.949Z,21.95
2022-08-16T06:01:22.244Z,21.98
2022-08-16T06:03:52.889Z,22.00
2022-08-16T06:06:28.052Z,22.01
2022-08-16T06:08:54.093Z,21.98
2022-08-16T06:11:25.613Z,21.99
2022-08-16T06:13:55.403Z,21.96
2022-08-16T06:16:27.028Z,21.99
2022-08-16T06:18:55.663Z,22.03
2022-08-16T06:21:26.643Z,22.01
2022-08-16T06:23:57.010Z,22.02
2022-08-16T06:26:36.992Z,21.95
2022-08-16T06:28:57.918Z,21.96
2022-08-16T06:31:28.047Z,21.95
2022-08-16T06:33:58.793Z,22.07
2022-08-16T06:36:29.612Z,22.20
2022-08-16T06:39:00.080Z,22.24
2022-08-16T06:41:39.474Z,22.28
2022-08-16T06:44:00.829Z,22.35
2022-08-16T06:46:32.084Z,22.35
2022-08-16T06:49:01.560Z,22.41
2022-08-16T06:51:45.717Z,22.46
2022-08-16T06:54:02.987Z,22.54
2022-08-16T06:56:33.827Z,22.48
2022-08-16T06:59:04.025Z,22.56
2022-08-16T07:01:43.256Z,22.66
2022-08-16T07:04:04.744Z,22.76
2022-08-16T07:06:35.573Z,22.73
2022-08-16T07:09:09.417Z,22.74
2022-08-16T07:11:46.149Z,22.73
2022-08-16T07:14:24.584Z,22.82
2022-08-16T07:16:37.665Z,22.83
2022-08-16T07:19:08.191Z,22.90
2022-08-16T07:21:46.700Z,23.03
2022-08-16T07:24:09.503Z,23.09
2022-08-16T07:26:40.341Z,23.03
2022-08-16T07:29:10.725Z,23.12
2022-08-16T07:31:40.840Z,23.01
2022-08-16T07:34:11.279Z,23.22
2022-08-16T07:36:41.987Z,23.25
2022-08-16T07:39:12.209Z,23.30
2022-08-16T07:41:42.826Z,23.34
2022-08-16T07:44:16.119Z,23.45
2022-08-16T07:46:43.735Z,23.54
2022-08-16T07:49:14.226Z,23.60
2022-08-16T07:51:44.475Z,23.61
2022-08-16T07:54:20.682Z,23.60
2022-08-16T07:56:45.500Z,23.65
2022-08-16T07:59:15.960Z,23.71
2022-08-16T08:01:46.121Z,23.71
2022-08-16T08:04:16.883Z,23.75
2022-08-16T08:06:50.933Z,23.71
2022-08-16T08:09:18.490Z,23.81
2022-08-16T08:11:59.772Z,23.85
2022-08-16T08:14:29.373Z,23.92
2022-08-16T08:16:49.364Z,23.97
2022-08-16T08:19:20.069Z,24.10
2022-08-16T08:22:01.363Z,24.15
2022-08-16T08:24:21.294Z,24.14
2022-08-16T08:26:52.087Z,24.31
2022-08-16T08:29:23.004Z,24.41
2022-08-16T08:31:53.212Z,24.42
2022-08-16T08:34:23.793Z,24.52
2022-08-16T08:36:54.709Z,24.61
2022-08-16T08:39:24.518Z,24.58
2022-08-16T08:41:55.165Z,24.53
2022-08-16T08:44:28.563Z,24.66
2022-08-16T08:47:00.660Z,24.72
2022-08-16T08:49:46.449Z,24.87
2022-08-16T08:51:56.535Z,25.00
2022-08-16T08:54:27.213Z,25.05
2022-08-16T08:56:57.710Z,25.13
2022-08-16T08:59:27.778Z,25.18
2022-08-16T09:01:58.695Z,25.25
2022-08-16T09:04:28.460Z,25.34
2022-08-16T09:07:01.379Z,25.32
2022-08-16T09:09:33.590Z,25.34
2022-08-16T09:12:05.952Z,25.45
2022-08-16T09:14:30.224Z,25.62
2022-08-16T09:17:03.722Z,25.57
2022-08-16T09:19:32.991Z,25.68
2022-08-16T09:22:01.277Z,25.80
2022-08-16T09:24:52.108Z,25.87
2022-08-16T09:27:01.880Z,25.87
2022-08-16T09:29:45.217Z,25.98
2022-08-16T09:32:04.011Z,26.06
2022-08-16T09:34:33.275Z,26.13
2022-08-16T09:37:17.630Z,26.17
2022-08-16T09:39:41.609Z,26.23
2022-08-16T09:42:05.231Z,26.27
2022-08-16T09:45:13.092Z,26.30
2022-08-16T09:47:10.404Z,26.38
2022-08-16T09:49:37.434Z,26.36
2022-08-16T09:52:07.411Z,26.45
2022-08-16T09:54:37.540Z,26.42
2022-08-16T09:57:12.093Z,26.61
2022-08-16T09:59:42.035Z,26.73
2022-08-16T10:02:27.256Z,26.63
2022-08-16T10:04:52.973Z,26.76
2022-08-16T10:07:15.017Z,26.85
2022-08-16T10:09:44.778Z,26.82
2022-08-16T10:12:11.309Z,26.79
2022-08-16T10:14:39.789Z,26.73
2022-08-16T10:17:10.520Z,26.84
2022-08-16T10:19:40.634Z,27.00
2022-08-16T10:22:10.791Z,27.13
2022-08-16T10:24:40.902Z,27.22
2022-08-16T10:27:26.129Z,27.24
2022-08-16T10:30:00.839Z,27.30
2022-08-16T10:32:11.286Z,27.46
2022-08-16T10:34:41.398Z,27.57
2022-08-16T10:37:12.075Z,27.68
2022-08-16T10:39:42.509Z,27.71
2022-08-16T10:42:13.508Z,27.68
2022-08-16T10:44:43.031Z,27.69
2022-08-16T10:47:13.081Z,27.68
2022-08-16T10:49:43.208Z,27.63
2022-08-16T10:52:18.644Z,27.79
2022-08-16T10:54:59.083Z,27.79
2022-08-16T10:57:13.558Z,27.77
2022-08-16T10:59:51.871Z,27.88
2022-08-16T11:02:57.694Z,27.72
2022-08-16T11:05:06.742Z,27.75
2022-08-16T11:07:54.829Z,27.94
2022-08-16T11:09:44.309Z,28.05
2022-08-16T11:12:14.957Z,27.94
2022-08-16T11:15:12.200Z,27.99
2022-08-16T11:17:15.204Z,28.11
2022-08-16T11:20:40.705Z,28.31
2022-08-16T11:22:39.650Z,28.25
2022-08-16T11:24:46.552Z,28.26
2022-08-16T11:27:21.159Z,28.35
2022-08-16T11:29:46.555Z,28.40
2022-08-16T11:32:20.277Z,28.35
2022-08-16T11:35:09.931Z,28.51
2022-08-16T11:37:27.203Z,28.54
2022-08-16T11:39:47.567Z,28.74
2022-08-16T11:42:23.244Z,28.72
2022-08-16T11:44:56.100Z,28.81
2022-08-16T11:47:17.878Z,28.89
2022-08-16T11:49:48.421Z,28.86
2022-08-16T11:52:18.545Z,28.90
2022-08-16T11:54:53.944Z,28.81
2022-08-16T11:57:18.784Z,28.73
2022-08-16T11:59:48.777Z,28.86
2022-08-16T12:02:31.153Z,28.84
2022-08-16T12:04:51.915Z,28.83
2022-08-16T12:07:19.639Z,28.94
2022-08-16T12:09:50.256Z,29.03
2022-08-16T12:12:20.386Z,28.99
2022-08-16T12:14:54.450Z,28.63
2022-08-16T12:17:20.549Z,28.65
2022-08-16T12:19:50.616Z,28.50
2022-08-16T12:22:20.729Z,28.30
2022-08-16T12:24:52.345Z,28.53
2022-08-16T12:27:21.493Z,28.68
2022-08-16T12:29:52.116Z,28.67
2022-08-16T12:32:38.383Z,28.84
2022-08-16T12:34:52.749Z,28.74
2022-08-16T12:37:24.480Z,28.89
2022-08-16T12:39:53.028Z,28.96
2022-08-16T12:42:24.509Z,29.05
2022-08-16T12:44:53.707Z,29.16
2022-08-16T12:47:23.798Z,29.30
2022-08-16T12:49:53.851Z,29.39
2022-08-16T12:52:33.820Z,29.38
2022-08-16T12:54:54.728Z,29.47
2022-08-16T12:57:24.115Z,29.34
2022-08-16T12:59:54.145Z,29.42
2022-08-16T13:02:33.691Z,29.44
2022-08-16T13:04:54.303Z,29.51
2022-08-16T13:07:27.286Z,29.54
2022-08-16T13:09:54.999Z,29.58
2022-08-16T13:12:25.216Z,29.62
2022-08-16T13:14:55.140Z,29.66
2022-08-16T13:17:26.279Z,29.85
2022-08-16T13:20:07.196Z,29.88
2022-08-16T13:22:26.082Z,29.93
2022-08-16T13:24:56.531Z,29.84
2022-08-16T13:27:59.323Z,29.86
2022-08-16T13:29:57.890Z,29.86
2022-08-16T13:32:39.702Z,29.88
2022-08-16T13:34:57.364Z,29.89
2022-08-16T13:37:27.584Z,29.76
2022-08-16T13:39:57.577Z,29.71
2022-08-16T13:42:27.627Z,29.58
2022-08-16T13:44:58.364Z,29.64
2022-08-16T13:47:30.220Z,29.77
2022-08-16T13:49:57.799Z,29.85
2022-08-16T13:52:32.153Z,29.92
2022-08-16T13:54:58.604Z,29.97
2022-08-16T13:57:53.375Z,30.05
2022-08-16T13:59:58.661Z,30.12
2022-08-16T14:02:28.779Z,30.08
2022-08-16T14:05:02.952Z,30.23
2022-08-16T14:07:29.386Z,30.26
2022-08-16T14:09:58.888Z,30.35
2022-08-16T14:12:28.995Z,30.23
2022-08-16T14:14:58.981Z,30.17
2022-08-16T14:17:29.036Z,30.18
2022-08-16T14:19:59.632Z,30.05
2022-08-16T14:22:30.704Z,30.03
2022-08-16T14:24:59.719Z,30.05
2022-08-16T14:27:29.805Z,29.99
2022-08-16T14:29:59.787Z,30.02
2022-08-16T14:32:32.941Z,30.06
2022-08-16T14:35:00.181Z,29.84
2022-08-16T14:37:31.870Z,29.76
2022-08-16T14:40:00.505Z,29.66
2022-08-16T14:42:30.346Z,29.62
2022-08-16T14:45:00.746Z,29.69
2022-08-16T14:47:34.438Z,29.84
2022-08-16T14:50:00.510Z,29.86
2022-08-16T14:52:53.967Z,29.86
2022-08-16T14:55:00.535Z,29.87
2022-08-16T14:57:30.682Z,29.90
2022-08-16T15:00:05.707Z,29.85
2022-08-16T15:02:34.557Z,29.89
2022-08-16T15:05:00.746Z,29.85
2022-08-16T15:07:34.996Z,29.60
2022-08-16T15:10:03.376Z,29.78
2022-08-16T15:12:33.533Z,29.85
2022-08-16T15:15:01.508Z,29.98
2022-08-16T15:17:33.875Z,29.90
2022-08-16T15:20:02.188Z,29.93
2022-08-16T15:22:32.896Z,29.90
2022-08-16T15:25:02.867Z,29.62
2022-08-16T15:27:35.571Z,29.73
2022-08-16T15:30:56.547Z,29.69
2022-08-16T15:32:33.637Z,29.76
2022-08-16T15:35:04.646Z,29.81
2022-08-16T15:37:42.580Z,29.85
2022-08-16T15:40:04.607Z,29.90
2022-08-16T15:42:34.472Z,29.93
2022-08-16T15:45:11.478Z,29.75
2022-08-16T15:47:35.154Z,29.92
2022-08-16T15:50:05.194Z,29.91
2022-08-16T15:52:35.255Z,29.93
2022-08-16T15:55:13.259Z,29.72
2022-08-16T15:57:41.472Z,29.77
2022-08-16T16:00:14.338Z,29.89
2022-08-16T16:02:37.276Z,29.80
2022-08-16T16:05:07.393Z,29.88
2022-08-16T16:07:44.910Z,29.90
2022-08-16T16:10:13.165Z,29.88
2022-08-16T16:12:51.607Z,29.94
2022-08-16T16:15:09.891Z,29.91
2022-08-16T16:17:39.968Z,29.94
2022-08-16T16:20:14.712Z,29.98
2022-08-16T16:22:40.679Z,29.94
2022-08-16T16:25:10.711Z,29.82
2022-08-16T16:27:40.834Z,29.77
2022-08-16T16:30:32.655Z,29.67
2022-08-16T16:32:40.970Z,29.67
2022-08-16T16:35:11.090Z,29.76
2022-08-16T16:37:41.738Z,29.80
2022-08-16T16:40:12.845Z,29.75
2022-08-16T16:42:44.366Z,29.79
2022-08-16T16:45:12.496Z,29.85
2022-08-16T16:47:48.376Z,29.81
2022-08-16T16:50:13.147Z,29.72
2022-08-16T16:52:44.954Z,29.63
2022-08-16T16:55:14.757Z,29.51
2022-08-16T16:57:44.685Z,29.42
2022-08-16T17:00:30.004Z,29.48
2022-08-16T17:02:49.781Z,29.48
2022-08-16T17:05:14.870Z,29.43
2022-08-16T17:07:44.999Z,29.33
2022-08-16T17:10:46.872Z,29.25
2022-08-16T17:12:56.704Z,29.10
2022-08-16T17:15:16.339Z,29.05
2022-08-16T17:18:00.015Z,29.05
2022-08-16T17:20:16.253Z,29.00
2022-08-16T17:22:46.735Z,28.97
2022-08-16T17:25:17.006Z,28.97
2022-08-16T17:27:50.752Z,28.91
2022-08-16T17:30:18.116Z,28.93
2022-08-16T17:32:50.415Z,28.69
2022-08-16T17:35:18.996Z,28.55
2022-08-16T17:37:52.069Z,28.43
2022-08-16T17:40:25.845Z,28.22
2022-08-16T17:42:50.541Z,28.28
2022-08-16T17:45:20.616Z,28.19
2022-08-16T17:47:50.831Z,28.14
2022-08-16T17:50:20.850Z,27.99
2022-08-16T17:52:51.245Z,27.82
2022-08-16T17:55:21.097Z,27.71
2022-08-16T17:57:51.837Z,27.71
2022-08-16T18:00:22.483Z,27.72
2022-08-16T18:02:53.002Z,27.77
2022-08-16T18:05:23.039Z,27.86
2022-08-16T18:07:53.742Z,27.90
2022-08-16T18:10:33.483Z,27.86
2022-08-16T18:12:55.843Z,27.87
2022-08-16T18:15:24.988Z,27.80
2022-08-16T18:17:55.374Z,27.65
2022-08-16T18:20:25.479Z,27.66
2022-08-16T18:22:55.636Z,27.65
2022-08-16T18:25:25.744Z,27.65
2022-08-16T18:27:56.235Z,27.49
2022-08-16T18:30:26.882Z,27.49
2022-08-16T18:32:57.031Z,27.43
2022-08-16T18:35:27.294Z,27.43
2022-08-16T18:37:57.858Z,27.41
2022-08-16T18:40:28.565Z,27.37
2022-08-16T18:42:58.733Z,27.40
2022-08-16T18:45:35.579Z,27.42
2022-08-16T18:47:59.935Z,27.42
2022-08-16T18:51:03.110Z,27.42
2022-08-16T18:53:00.680Z,27.42
2022-08-16T18:55:33.511Z,27.39
2022-08-16T18:58:01.211Z,27.43
2022-08-16T19:00:31.866Z,27.48
2022-08-16T19:03:02.022Z,27.55
2022-08-16T19:05:32.708Z,27.59
2022-08-16T19:08:03.433Z,27.61
2022-08-16T19:10:34.200Z,27.58
2022-08-16T19:13:04.601Z,27.52
2022-08-16T19:15:34.724Z,27.47
2022-08-16T19:18:05.480Z,27.45
2022-08-16T19:20:35.583Z,27.46
2022-08-16T19:23:10.551Z,27.46
2022-08-16T19:25:47.176Z,27.47
2022-08-16T19:28:07.558Z,27.44
2022-08-16T19:30:37.707Z,27.43
2022-08-16T19:33:11.023Z,27.39
2022-08-16T19:35:38.143Z,27.34
2022-08-16T19:38:08.396Z,27.30
2022-08-16T19:40:38.666Z,27.25
2022-08-16T19:43:08.888Z,27.20
2022-08-16T19:45:43.861Z,27.15
2022-08-16T19:48:09.148Z,27.07
2022-08-16T19:50:39.568Z,27.01
2022-08-16T19:53:12.885Z,26.95
2022-08-16T19:55:40.386Z,26.88
2022-08-16T19:58:10.888Z,26.77
2022-08-16T20:00:41.578Z,26.73
2022-08-16T20:03:11.826Z,26.69
2022-08-16T20:05:42.469Z,26.61
2022-08-16T20:08:12.729Z,26.50
2022-08-16T20:10:43.439Z,26.40
2022-08-16T20:13:13.613Z,26.32
2022-08-16T20:15:43.682Z,26.25
2022-08-16T20:18:24.977Z,26.17
2022-08-16T20:20:44.622Z,26.06
2022-08-16T20:23:24.025Z,25.93
2022-08-16T20:25:49.746Z,25.82
2022-08-16T20:28:33.340Z,25.75
2022-08-16T20:30:46.762Z,25.70
2022-08-16T20:33:16.943Z,25.71
2022-08-16T20:35:47.176Z,25.69
2022-08-16T20:38:17.923Z,25.70
2022-08-16T20:40:48.139Z,25.69
2022-08-16T20:43:18.668Z,25.65
2022-08-16T20:45:49.399Z,25.65
2022-08-16T20:48:19.931Z,25.64
2022-08-16T20:50:50.339Z,25.66
2022-08-16T20:53:20.987Z,25.68
2022-08-16T20:55:51.607Z,25.64
2022-08-16T20:58:21.841Z,25.57
2022-08-16T21:00:52.701Z,25.55
2022-08-16T21:03:23.080Z,25.55
2022-08-16T21:05:53.222Z,25.53
2022-08-16T21:08:27.902Z,25.51
2022-08-16T21:10:54.051Z,25.45
2022-08-16T21:13:24.282Z,25.41
2022-08-16T21:15:54.729Z,25.35
2022-08-16T21:18:24.991Z,25.30
2022-08-16T21:20:55.417Z,25.22
2022-08-16T21:23:25.944Z,25.19
2022-08-16T21:25:58.978Z,25.16
2022-08-16T21:28:40.214Z,25.12
2022-08-16T21:30:56.385Z,25.09
2022-08-16T21:33:26.914Z,25.08
2022-08-16T21:35:57.644Z,25.08
2022-08-16T21:38:29.999Z,25.07
2022-08-16T21:40:58.562Z,25.03
2022-08-16T21:43:29.376Z,25.01
2022-08-16T21:45:59.576Z,24.97
2022-08-16T21:48:33.717Z,24.97
2022-08-16T21:51:00.615Z,24.95
2022-08-16T21:53:31.348Z,24.88
2022-08-16T21:56:01.765Z,24.84
2022-08-16T21:58:32.277Z,24.83
2022-08-16T22:01:02.994Z,24.82
2022-08-16T22:03:33.190Z,24.79
2022-08-16T22:06:13.783Z,24.78
2022-08-16T22:08:33.727Z,24.75
2022-08-16T22:11:09.282Z,24.72
2022-08-16T22:13:35.070Z,24.62
2022-08-16T22:16:05.567Z,24.57
2022-08-16T22:18:35.959Z,24.58
2022-08-16T22:21:05.829Z,24.59
2022-08-16T22:23:35.954Z,24.58
2022-08-16T22:26:06.272Z,24.54
2022-08-16T22:28:36.861Z,24.48
2022-08-16T22:31:07.318Z,24.44
2022-08-16T22:33:38.012Z,24.44
2022-08-16T22:36:08.225Z,24.44
2022-08-16T22:38:54.865Z,24.44
2022-08-16T22:41:09.194Z,24.41
2022-08-16T22:43:39.632Z,24.38
2022-08-16T22:46:09.876Z,24.35
2022-08-16T22:48:42.553Z,24.30
2022-08-16T22:51:11.034Z,24.27
2022-08-16T22:53:41.996Z,24.22
2022-08-16T22:56:12.144Z,24.21
2022-08-16T22:58:42.716Z,24.17
2022-08-16T23:01:12.963Z,24.10
2022-08-16T23:03:42.992Z,24.01
2022-08-16T23:06:13.677Z,23.90
2022-08-16T23:08:43.845Z,23.83
2022-08-16T23:11:14.051Z,23.82
2022-08-16T23:13:49.987Z,23.82
2022-08-16T23:16:14.780Z,23.83
2022-08-16T23:18:45.254Z,23.83
2022-08-16T23:21:15.625Z,23.76
2022-08-16T23:23:46.411Z,23.74
2022-08-16T23:26:46.654Z,23.74
2022-08-16T23:28:46.988Z,23.73
2022-08-16T23:31:17.182Z,23.71
2022-08-16T23:33:47.502Z,23.65
2022-08-16T23:36:17.627Z,23.61
2022-08-16T23:38:48.144Z,23.57
2022-08-16T23:41:18.895Z,23.56
2022-08-16T23:43:49.230Z,23.52
2022-08-16T23:46:19.713Z,23.52
2022-08-16T23:50:01.597Z,23.52
2022-08-16T23:51:20.467Z,23.51
2022-08-16T23:53:51.343Z,23.48
2022-08-16T23:56:21.710Z,23.47
2022-08-16T23:58:58.288Z,23.40
